sensor_id;sensor_type;location;lat;lon;timestamp;temperature;humidity
10276;DHT22;5183;51.190;6.820;2022-12-11T06:32:01;0.50;99.90
10276;DHT22;5183;51.190;6.820;2022-12-11T06:34:28;0.50;99.90
10276;DHT22;5183;51.190;6.820;2022-12-11T06:36:55;0.50;99.90
10276;DHT22;5183;51.190;6.820;2022-12-11T06:39:22;0.50;99.90
10276;DHT22;5183;51.190;6.820;2022-12-11T06:41:49;0.50;99.90
10276;DHT22;5183;51.190;6.820;2022-12-11T06:44:15;0.40;99.90
10276;DHT22;5183;51.190;6.820;2022-12-11T06:46:42;0.40;99.90
10276;DHT22;5183;51.190;6.820;2022-12-11T06:49:10;0.40;99.90
10276;DHT22;5183;51.190;6.820;2022-12-11T06:51:37;0.40;99.90
10276;DHT22;5183;51.190;6.820;2022-12-11T06:54:05;0.50;99.90
10276;DHT22;5183;51.190;6.820;2022-12-11T06:56:33;0.50;99.90
10276;DHT22;5183;51.190;6.820;2022-12-11T06:59:00;0.40;99.90
10276;DHT22;5183;51.190;6.820;2022-12-11T07:01:27;0.40;99.90
10276;DHT22;5183;51.190;6.820;2022-12-11T07:03:57;0.40;99.90
10276;DHT22;5183;51.190;6.820;2022-12-11T07:06:26;0.40;99.90
10276;DHT22;5183;51.190;6.820;2022-12-11T07:08:53;0.40;99.90
10276;DHT22;5183;51.190;6.820;2022-12-11T07:11:20;0.40;99.90
10276;DHT22;5183;51.190;6.820;2022-12-11T07:13:47;0.40;99.90
10276;DHT22;5183;51.190;6.820;2022-12-11T07:16:15;0.40;99.90
10276;DHT22;5183;51.190;6.820;2022-12-11T07:18:46;0.40;99.90
10276;DHT22;5183;51.190;6.820;2022-12-11T07:21:13;0.50;99.90
10276;DHT22;5183;51.190;6.820;2022-12-11T07:23:42;0.50;99.90
10276;DHT22;5183;51.190;6.820;2022-12-11T07:26:10;0.50;99.90
10276;DHT22;5183;51.190;6.820;2022-12-11T07:28:37;0.50;99.90
10276;DHT22;5183;51.190;6.820;2022-12-11T07:31:05;0.50;99.90
10276;DHT22;5183;51.190;6.820;2022-12-11T07:33:32;0.50;99.90
10276;DHT22;5183;51.190;6.820;2022-12-11T07:36:00;0.50;99.90
10276;DHT22;5183;51.190;6.820;2022-12-11T07:38:27;0.50;99.90
10276;DHT22;5183;51.190;6.820;2022-12-11T07:40:58;0.50;99.90
10276;DHT22;5183;51.190;6.820;2022-12-11T07:43:25;0.50;99.90
10276;DHT22;5183;51.190;6.820;2022-12-11T07:45:52;0.50;99.90
10276;DHT22;5183;51.190;6.820;2022-12-11T07:48:19;0.50;99.90
10276;DHT22;5183;51.190;6.820;2022-12-11T07:50:46;0.50;99.90
10276;DHT22;5183;51.190;6.820;2022-12-11T07:53:12;0.50;99.90
10276;DHT22;5183;51.190;6.820;2022-12-11T07:55:39;0.50;99.90
10276;DHT22;5183;51.190;6.820;2022-12-11T07:58:07;0.50;99.90
10276;DHT22;5183;51.190;6.820;2022-12-11T08:00:34;0.50;99.90
10276;DHT22;5183;51.190;6.820;2022-12-11T08:03:01;0.50;99.90
10276;DHT22;5183;51.190;6.820;2022-12-11T08:05:28;0.50;99.90
10276;DHT22;5183;51.190;6.820;2022-12-11T08:07:55;0.50;99.90
10276;DHT22;5183;51.190;6.820;2022-12-11T08:10:21;0.50;99.90
10276;DHT22;5183;51.190;6.820;2022-12-11T08:12:48;0.60;99.90
10276;DHT22;5183;51.190;6.820;2022-12-11T08:15:17;0.50;99.90
10276;DHT22;5183;51.190;6.820;2022-12-11T08:17:43;0.60;99.90
10276;DHT22;5183;51.190;6.820;2022-12-11T08:20:10;0.60;99.90
10276;DHT22;5183;51.190;6.820;2022-12-11T08:22:37;0.60;99.90
10276;DHT22;5183;51.190;6.820;2022-12-11T08:25:05;0.60;99.90
10276;DHT22;5183;51.190;6.820;2022-12-11T08:27:35;0.60;99.90
10276;DHT22;5183;51.190;6.820;2022-12-11T08:30:02;0.60;99.90
10276;DHT22;5183;51.190;6.820;2022-12-11T08:32:31;0.60;99.90
10276;DHT22;5183;51.190;6.820;2022-12-11T08:34:59;0.60;99.90
10276;DHT22;5183;51.190;6.820;2022-12-11T08:37:26;0.60;99.90
10276;DHT22;5183;51.190;6.820;2022-12-11T08:39:54;0.60;99.90
10276;DHT22;5183;51.190;6.820;2022-12-11T08:42:20;0.60;99.90
10276;DHT22;5183;51.190;6.820;2022-12-11T08:44:47;0.60;99.90
10276;DHT22;5183;51.190;6.820;2022-12-11T08:47:14;0.60;99.90
10276;DHT22;5183;51.190;6.820;2022-12-11T08:49:42;0.70;99.90
10276;DHT22;5183;51.190;6.820;2022-12-11T08:52:09;0.70;99.90
10276;DHT22;5183;51.190;6.820;2022-12-11T08:54:36;0.80;99.90
10276;DHT22;5183;51.190;6.820;2022-12-11T08:57:03;0.70;99.90
10276;DHT22;5183;51.190;6.820;2022-12-11T08:59:30;0.80;99.90
10276;DHT22;5183;51.190;6.820;2022-12-11T09:01:57;0.90;99.90
10276;DHT22;5183;51.190;6.820;2022-12-11T09:04:24;0.90;99.90
10276;DHT22;5183;51.190;6.820;2022-12-11T09:06:52;0.90;99.90
10276;DHT22;5183;51.190;6.820;2022-12-11T09:09:19;0.90;99.90
10276;DHT22;5183;51.190;6.820;2022-12-11T09:11:46;0.90;99.90
10276;DHT22;5183;51.190;6.820;2022-12-11T09:14:14;0.90;99.90
10276;DHT22;5183;51.190;6.820;2022-12-11T09:16:41;0.90;99.90
10276;DHT22;5183;51.190;6.820;2022-12-11T09:19:11;0.90;99.90
10276;DHT22;5183;51.190;6.820;2022-12-11T09:21:39;0.80;99.90
10276;DHT22;5183;51.190;6.820;2022-12-11T09:24:09;0.90;99.90
10276;DHT22;5183;51.190;6.820;2022-12-11T09:26:37;0.90;99.90
10276;DHT22;5183;51.190;6.820;2022-12-11T09:29:04;0.90;99.90
10276;DHT22;5183;51.190;6.820;2022-12-11T09:31:33;0.90;99.90
10276;DHT22;5183;51.190;6.820;2022-12-11T09:34:02;0.90;99.90
10276;DHT22;5183;51.190;6.820;2022-12-11T09:36:29;1.00;99.90
10276;DHT22;5183;51.190;6.820;2022-12-11T09:38:59;1.00;99.90
10276;DHT22;5183;51.190;6.820;2022-12-11T09:41:36;1.00;99.90
10276;DHT22;5183;51.190;6.820;2022-12-11T09:44:29;1.00;99.90
10276;DHT22;5183;51.190;6.820;2022-12-11T09:46:57;0.90;99.90
10276;DHT22;5183;51.190;6.820;2022-12-11T09:49:27;0.90;99.90
10276;DHT22;5183;51.190;6.820;2022-12-11T09:52:05;0.90;99.90
10276;DHT22;5183;51.190;6.820;2022-12-11T09:54:34;1.00;99.90
10276;DHT22;5183;51.190;6.820;2022-12-11T09:57:09;1.00;99.90
10276;DHT22;5183;51.190;6.820;2022-12-11T09:59:57;1.00;99.90
10276;DHT22;5183;51.190;6.820;2022-12-11T10:02:37;1.10;99.90
10276;DHT22;5183;51.190;6.820;2022-12-11T10:05:13;1.10;99.90
10276;DHT22;5183;51.190;6.820;2022-12-11T10:07:51;1.00;99.90
10276;DHT22;5183;51.190;6.820;2022-12-11T10:10:25;1.00;99.90
10276;DHT22;5183;51.190;6.820;2022-12-11T10:13:03;1.00;99.90
10276;DHT22;5183;51.190;6.820;2022-12-11T10:15:39;1.00;99.90
10276;DHT22;5183;51.190;6.820;2022-12-11T10:18:12;1.10;99.90
10276;DHT22;5183;51.190;6.820;2022-12-11T10:20:42;1.10;99.90
10276;DHT22;5183;51.190;6.820;2022-12-11T10:23:16;1.20;99.90
10276;DHT22;5183;51.190;6.820;2022-12-11T10:25:47;1.20;99.90
10276;DHT22;5183;51.190;6.820;2022-12-11T10:28:18;1.20;99.90
10276;DHT22;5183;51.190;6.820;2022-12-11T10:30:48;1.20;99.90
10276;DHT22;5183;51.190;6.820;2022-12-11T10:33:21;1.30;99.90
10276;DHT22;5183;51.190;6.820;2022-12-11T10:35:50;1.30;99.90
10276;DHT22;5183;51.190;6.820;2022-12-11T10:38:21;1.40;99.90
10276;DHT22;5183;51.190;6.820;2022-12-11T10:40:52;1.40;99.90
10276;DHT22;5183;51.190;6.820;2022-12-11T10:43:31;1.50;99.90
10276;DHT22;5183;51.190;6.820;2022-12-11T10:45:58;1.50;99.90
10276;DHT22;5183;51.190;6.820;2022-12-11T10:48:25;1.50;99.90
10276;DHT22;5183;51.190;6.820;2022-12-11T10:50:57;1.50;99.90
10276;DHT22;5183;51.190;6.820;2022-12-11T10:53:25;1.40;99.90
10276;DHT22;5183;51.190;6.820;2022-12-11T10:55:54;1.40;99.90
10276;DHT22;5183;51.190;6.820;2022-12-11T10:58:25;1.50;99.90
10276;DHT22;5183;51.190;6.820;2022-12-11T11:01:13;1.50;99.90
10276;DHT22;5183;51.190;6.820;2022-12-11T11:03:52;1.40;99.90
10276;DHT22;5183;51.190;6.820;2022-12-11T11:06:20;1.40;99.90
10276;DHT22;5183;51.190;6.820;2022-12-11T11:08:49;1.40;99.90
10276;DHT22;5183;51.190;6.820;2022-12-11T11:11:23;1.40;99.90
10276;DHT22;5183;51.190;6.820;2022-12-11T11:14:04;1.40;99.90
10276;DHT22;5183;51.190;6.820;2022-12-11T11:16:35;1.40;99.90
10276;DHT22;5183;51.190;6.820;2022-12-11T11:19:03;1.50;99.90
10276;DHT22;5183;51.190;6.820;2022-12-11T11:21:32;1.50;99.90
10276;DHT22;5183;51.190;6.820;2022-12-11T11:23:59;1.60;99.90
10276;DHT22;5183;51.190;6.820;2022-12-11T11:26:30;1.50;99.90
10276;DHT22;5183;51.190;6.820;2022-12-11T11:29:00;1.50;99.90
10276;DHT22;5183;51.190;6.820;2022-12-11T11:31:31;1.60;99.90
10276;DHT22;5183;51.190;6.820;2022-12-11T11:34:00;1.60;99.90
10276;DHT22;5183;51.190;6.820;2022-12-11T11:36:30;1.60;99.90
10276;DHT22;5183;51.190;6.820;2022-12-11T11:39:12;1.60;99.90
10276;DHT22;5183;51.190;6.820;2022-12-11T11:41:47;1.70;99.90
10276;DHT22;5183;51.190;6.820;2022-12-11T11:44:20;1.70;99.90
10276;DHT22;5183;51.190;6.820;2022-12-11T11:46:56;1.70;99.90
10276;DHT22;5183;51.190;6.820;2022-12-11T11:49:36;1.80;99.90
10276;DHT22;5183;51.190;6.820;2022-12-11T11:52:11;1.70;99.90
10276;DHT22;5183;51.190;6.820;2022-12-11T11:54:48;1.70;99.90
10276;DHT22;5183;51.190;6.820;2022-12-11T11:57:22;1.70;99.90
10276;DHT22;5183;51.190;6.820;2022-12-11T11:59:58;1.70;99.90
10276;DHT22;5183;51.190;6.820;2022-12-11T12:02:34;1.60;99.90
10276;DHT22;5183;51.190;6.820;2022-12-11T12:05:02;1.50;99.90
10276;DHT22;5183;51.190;6.820;2022-12-11T12:07:35;1.40;99.90
10276;DHT22;5183;51.190;6.820;2022-12-11T12:10:11;1.50;99.90
10276;DHT22;5183;51.190;6.820;2022-12-11T12:12:49;1.60;99.90
10276;DHT22;5183;51.190;6.820;2022-12-11T12:15:32;1.50;99.90
10276;DHT22;5183;51.190;6.820;2022-12-11T12:18:10;1.50;99.90
10276;DHT22;5183;51.190;6.820;2022-12-11T12:20:45;1.50;99.90
10276;DHT22;5183;51.190;6.820;2022-12-11T12:23:32;1.50;99.90
10276;DHT22;5183;51.190;6.820;2022-12-11T12:26:06;1.40;99.90
10276;DHT22;5183;51.190;6.820;2022-12-11T12:28:40;1.40;99.90
10276;DHT22;5183;51.190;6.820;2022-12-11T12:31:31;1.50;99.90
10276;DHT22;5183;51.190;6.820;2022-12-11T12:34:05;1.50;99.90
10276;DHT22;5183;51.190;6.820;2022-12-11T12:36:41;1.60;99.90
10276;DHT22;5183;51.190;6.820;2022-12-11T12:39:17;1.70;99.90
10276;DHT22;5183;51.190;6.820;2022-12-11T12:41:53;1.80;99.90
10276;DHT22;5183;51.190;6.820;2022-12-11T12:44:23;1.90;99.90
10276;DHT22;5183;51.190;6.820;2022-12-11T12:46:56;1.90;99.90
10276;DHT22;5183;51.190;6.820;2022-12-11T12:49:33;1.90;99.90
10276;DHT22;5183;51.190;6.820;2022-12-11T12:52:01;1.90;99.90
10276;DHT22;5183;51.190;6.820;2022-12-11T12:54:29;1.90;99.90
10276;DHT22;5183;51.190;6.820;2022-12-11T12:56:58;1.90;97.90
10276;DHT22;5183;51.190;6.820;2022-12-11T12:59:26;1.90;99.90
10276;DHT22;5183;51.190;6.820;2022-12-11T13:01:56;1.80;99.90
10276;DHT22;5183;51.190;6.820;2022-12-11T13:04:34;1.70;99.90
10276;DHT22;5183;51.190;6.820;2022-12-11T13:07:15;1.80;99.90
10276;DHT22;5183;51.190;6.820;2022-12-11T13:09:42;1.70;99.90
10276;DHT22;5183;51.190;6.820;2022-12-11T13:12:14;1.70;99.90
10276;DHT22;5183;51.190;6.820;2022-12-11T13:14:41;1.80;99.90
10276;DHT22;5183;51.190;6.820;2022-12-11T13:17:34;1.90;99.90
10276;DHT22;5183;51.190;6.820;2022-12-11T13:20:15;2.00;99.90
10276;DHT22;5183;51.190;6.820;2022-12-11T13:22:48;2.10;99.90
10276;DHT22;5183;51.190;6.820;2022-12-11T13:25:25;2.10;99.90
10276;DHT22;5183;51.190;6.820;2022-12-11T13:27:52;2.10;99.90
10276;DHT22;5183;51.190;6.820;2022-12-11T13:30:29;2.00;99.90
10276;DHT22;5183;51.190;6.820;2022-12-11T13:33:01;2.00;99.90
10276;DHT22;5183;51.190;6.820;2022-12-11T13:35:30;2.10;99.90
10276;DHT22;5183;51.190;6.820;2022-12-11T13:38:02;2.10;99.90
10276;DHT22;5183;51.190;6.820;2022-12-11T13:40:35;2.20;99.90
10276;DHT22;5183;51.190;6.820;2022-12-11T13:43:05;2.10;99.90
10276;DHT22;5183;51.190;6.820;2022-12-11T13:45:38;2.10;99.90
10276;DHT22;5183;51.190;6.820;2022-12-11T13:48:16;2.10;99.90
10276;DHT22;5183;51.190;6.820;2022-12-11T13:50:44;2.20;99.90
10276;DHT22;5183;51.190;6.820;2022-12-11T13:53:14;2.10;98.40
10276;DHT22;5183;51.190;6.820;2022-12-11T13:55:42;2.20;99.90
10276;DHT22;5183;51.190;6.820;2022-12-11T13:58:17;2.10;99.90
10276;DHT22;5183;51.190;6.820;2022-12-11T14:00:55;2.10;99.90
10276;DHT22;5183;51.190;6.820;2022-12-11T14:03:26;2.00;99.90
10276;DHT22;5183;51.190;6.820;2022-12-11T14:05:53;2.00;99.90
10276;DHT22;5183;51.190;6.820;2022-12-11T14:08:23;2.00;99.90
10276;DHT22;5183;51.190;6.820;2022-12-11T14:10:53;2.00;99.90
10276;DHT22;5183;51.190;6.820;2022-12-11T14:13:23;2.00;99.90
10276;DHT22;5183;51.190;6.820;2022-12-11T14:15:51;1.90;99.90
10276;DHT22;5183;51.190;6.820;2022-12-11T14:18:21;1.90;99.90
10276;DHT22;5183;51.190;6.820;2022-12-11T14:20:55;1.90;99.90
10276;DHT22;5183;51.190;6.820;2022-12-11T14:23:24;1.90;99.90
10276;DHT22;5183;51.190;6.820;2022-12-11T14:25:52;1.90;99.90
10276;DHT22;5183;51.190;6.820;2022-12-11T14:28:20;1.90;99.90
10276;DHT22;5183;51.190;6.820;2022-12-11T14:30:49;1.90;99.90
10276;DHT22;5183;51.190;6.820;2022-12-11T14:33:18;1.80;99.90
10276;DHT22;5183;51.190;6.820;2022-12-11T14:35:47;1.90;99.90
10276;DHT22;5183;51.190;6.820;2022-12-11T14:38:19;1.90;99.90
10276;DHT22;5183;51.190;6.820;2022-12-11T14:40:52;1.80;99.90
10276;DHT22;5183;51.190;6.820;2022-12-11T14:43:23;1.90;99.90
10276;DHT22;5183;51.190;6.820;2022-12-11T14:45:55;1.90;99.90
10276;DHT22;5183;51.190;6.820;2022-12-11T14:48:27;1.90;99.90
10276;DHT22;5183;51.190;6.820;2022-12-11T14:50:57;1.90;99.90
10276;DHT22;5183;51.190;6.820;2022-12-11T14:53:28;1.90;99.90
10276;DHT22;5183;51.190;6.820;2022-12-11T14:55:58;1.90;99.90
10276;DHT22;5183;51.190;6.820;2022-12-11T14:58:27;1.80;99.90
10276;DHT22;5183;51.190;6.820;2022-12-11T15:00:58;1.80;99.90
10276;DHT22;5183;51.190;6.820;2022-12-11T15:03:33;1.80;99.90
10276;DHT22;5183;51.190;6.820;2022-12-11T15:06:20;1.80;99.90
10276;DHT22;5183;51.190;6.820;2022-12-11T15:08:49;1.80;99.90
10276;DHT22;5183;51.190;6.820;2022-12-11T15:11:17;1.80;99.90
10276;DHT22;5183;51.190;6.820;2022-12-11T15:13:51;1.80;99.90
10276;DHT22;5183;51.190;6.820;2022-12-11T15:16:20;1.80;99.90
10276;DHT22;5183;51.190;6.820;2022-12-11T15:18:50;1.80;99.90
10276;DHT22;5183;51.190;6.820;2022-12-11T15:21:18;1.70;99.90
10276;DHT22;5183;51.190;6.820;2022-12-11T15:23:55;1.70;99.90
10276;DHT22;5183;51.190;6.820;2022-12-11T15:26:32;1.70;99.90
10276;DHT22;5183;51.190;6.820;2022-12-11T15:29:01;1.70;99.90
10276;DHT22;5183;51.190;6.820;2022-12-11T15:31:30;1.70;99.90
10276;DHT22;5183;51.190;6.820;2022-12-11T15:33:58;1.70;99.90
10276;DHT22;5183;51.190;6.820;2022-12-11T15:36:30;1.70;99.90
10276;DHT22;5183;51.190;6.820;2022-12-11T15:38:58;1.70;99.90
10276;DHT22;5183;51.190;6.820;2022-12-11T15:41:25;1.70;99.90
10276;DHT22;5183;51.190;6.820;2022-12-11T15:43:54;1.80;99.90
10276;DHT22;5183;51.190;6.820;2022-12-11T15:46:22;1.70;99.90
10276;DHT22;5183;51.190;6.820;2022-12-11T15:48:49;1.70;99.90
10276;DHT22;5183;51.190;6.820;2022-12-11T15:51:16;1.70;99.90
10276;DHT22;5183;51.190;6.820;2022-12-11T15:53:43;1.70;99.90
10276;DHT22;5183;51.190;6.820;2022-12-11T15:56:14;1.70;99.90
10276;DHT22;5183;51.190;6.820;2022-12-11T15:58:42;1.70;99.90
10276;DHT22;5183;51.190;6.820;2022-12-11T16:01:10;1.70;99.90
10276;DHT22;5183;51.190;6.820;2022-12-11T16:03:37;1.70;99.90
10276;DHT22;5183;51.190;6.820;2022-12-11T16:06:04;1.70;99.90
10276;DHT22;5183;51.190;6.820;2022-12-11T16:08:31;1.70;99.90
10276;DHT22;5183;51.190;6.820;2022-12-11T16:10:58;1.60;99.90
10276;DHT22;5183;51.190;6.820;2022-12-11T16:13:28;1.70;99.90
10276;DHT22;5183;51.190;6.820;2022-12-11T16:15:55;1.70;99.90
10276;DHT22;5183;51.190;6.820;2022-12-11T16:18:23;1.70;99.90
10276;DHT22;5183;51.190;6.820;2022-12-11T16:20:51;1.70;99.90
10276;DHT22;5183;51.190;6.820;2022-12-11T16:23:18;1.70;99.90
10276;DHT22;5183;51.190;6.820;2022-12-11T16:25:45;1.70;99.90
10276;DHT22;5183;51.190;6.820;2022-12-11T16:28:14;1.60;99.90
10276;DHT22;5183;51.190;6.820;2022-12-11T16:30:44;1.60;99.90
10276;DHT22;5183;51.190;6.820;2022-12-11T16:33:12;1.60;99.90
10276;DHT22;5183;51.190;6.820;2022-12-11T16:35:39;1.70;99.90
10276;DHT22;5183;51.190;6.820;2022-12-11T16:38:07;1.60;99.90
10276;DHT22;5183;51.190;6.820;2022-12-11T16:40:34;1.60;99.90
10276;DHT22;5183;51.190;6.820;2022-12-11T16:43:02;1.60;99.90
10276;DHT22;5183;51.190;6.820;2022-12-11T16:45:29;1.60;99.90
10276;DHT22;5183;51.190;6.820;2022-12-11T16:47:59;1.60;99.90
10276;DHT22;5183;51.190;6.820;2022-12-11T16:50:27;1.60;99.90
10276;DHT22;5183;51.190;6.820;2022-12-11T16:52:54;1.60;99.90
10276;DHT22;5183;51.190;6.820;2022-12-11T16:55:22;1.60;99.90
10276;DHT22;5183;51.190;6.820;2022-12-11T16:57:49;1.60;99.90
10276;DHT22;5183;51.190;6.820;2022-12-11T17:00:16;1.50;99.90
10276;DHT22;5183;51.190;6.820;2022-12-11T17:02:44;1.50;99.90
10276;DHT22;5183;51.190;6.820;2022-12-11T17:05:15;1.50;99.90
10276;DHT22;5183;51.190;6.820;2022-12-11T17:07:42;1.50;99.90
10276;DHT22;5183;51.190;6.820;2022-12-11T17:10:11;1.50;99.90
10276;DHT22;5183;51.190;6.820;2022-12-11T17:12:38;1.50;99.90
10276;DHT22;5183;51.190;6.820;2022-12-11T17:15:05;1.50;99.90
10276;DHT22;5183;51.190;6.820;2022-12-11T17:17:33;1.50;99.90
10276;DHT22;5183;51.190;6.820;2022-12-11T17:19:59;1.50;99.90
10276;DHT22;5183;51.190;6.820;2022-12-11T17:22:28;1.50;99.90
10276;DHT22;5183;51.190;6.820;2022-12-11T17:24:55;1.40;99.90
10276;DHT22;5183;51.190;6.820;2022-12-11T17:27:22;1.40;99.90
10276;DHT22;5183;51.190;6.820;2022-12-11T17:29:48;1.40;99.90
10276;DHT22;5183;51.190;6.820;2022-12-11T17:32:15;1.40;99.90
10276;DHT22;5183;51.190;6.820;2022-12-11T17:34:43;1.50;99.90
10276;DHT22;5183;51.190;6.820;2022-12-11T17:37:10;1.50;99.90
10276;DHT22;5183;51.190;6.820;2022-12-11T17:39:38;1.50;99.90
10276;DHT22;5183;51.190;6.820;2022-12-11T17:42:05;1.40;99.90
10276;DHT22;5183;51.190;6.820;2022-12-11T17:44:32;1.50;99.90
10276;DHT22;5183;51.190;6.820;2022-12-11T17:46:59;1.40;99.90
10276;DHT22;5183;51.190;6.820;2022-12-11T17:49:26;1.40;99.90
10276;DHT22;5183;51.190;6.820;2022-12-11T17:51:53;1.40;99.90
10276;DHT22;5183;51.190;6.820;2022-12-11T17:54:20;1.40;99.90
10276;DHT22;5183;51.190;6.820;2022-12-11T17:56:48;1.40;99.90
10276;DHT22;5183;51.190;6.820;2022-12-11T17:59:17;1.40;99.90
10276;DHT22;5183;51.190;6.820;2022-12-11T18:01:44;1.40;99.90
10276;DHT22;5183;51.190;6.820;2022-12-11T18:04:11;1.40;99.90
10276;DHT22;5183;51.190;6.820;2022-12-11T18:06:38;1.40;99.90
10276;DHT22;5183;51.190;6.820;2022-12-11T18:09:06;1.40;99.90
10276;DHT22;5183;51.190;6.820;2022-12-11T18:11:33;1.40;99.90
10276;DHT22;5183;51.190;6.820;2022-12-11T18:14:01;1.40;99.90
10276;DHT22;5183;51.190;6.820;2022-12-11T18:16:30;1.40;99.90
10276;DHT22;5183;51.190;6.820;2022-12-11T18:18:57;1.40;99.90
10276;DHT22;5183;51.190;6.820;2022-12-11T18:21:27;1.40;99.90
10276;DHT22;5183;51.190;6.820;2022-12-11T18:23:55;1.40;99.90
10276;DHT22;5183;51.190;6.820;2022-12-11T18:26:22;1.40;99.90
10276;DHT22;5183;51.190;6.820;2022-12-11T18:28:49;1.40;99.90
10276;DHT22;5183;51.190;6.820;2022-12-11T18:31:19;1.40;99.90
10276;DHT22;5183;51.190;6.820;2022-12-11T18:33:47;1.40;99.90
10276;DHT22;5183;51.190;6.820;2022-12-11T18:36:16;1.40;99.90
10276;DHT22;5183;51.190;6.820;2022-12-11T18:38:45;1.40;99.90
10276;DHT22;5183;51.190;6.820;2022-12-11T18:41:13;1.30;99.90
10276;DHT22;5183;51.190;6.820;2022-12-11T18:43:41;1.40;99.90
10276;DHT22;5183;51.190;6.820;2022-12-11T18:46:10;1.40;99.90
10276;DHT22;5183;51.190;6.820;2022-12-11T18:48:38;1.40;99.90
10276;DHT22;5183;51.190;6.820;2022-12-11T18:51:07;1.40;99.90
10276;DHT22;5183;51.190;6.820;2022-12-11T18:53:36;1.40;99.90
10276;DHT22;5183;51.190;6.820;2022-12-11T18:56:05;1.40;99.90
10276;DHT22;5183;51.190;6.820;2022-12-11T18:58:33;1.40;99.90
10276;DHT22;5183;51.190;6.820;2022-12-11T19:01:05;1.40;99.90
10276;DHT22;5183;51.190;6.820;2022-12-11T19:03:32;1.40;99.90
10276;DHT22;5183;51.190;6.820;2022-12-11T19:06:06;1.40;99.90
10276;DHT22;5183;51.190;6.820;2022-12-11T19:08:33;1.40;99.90
10276;DHT22;5183;51.190;6.820;2022-12-11T19:11:00;1.40;99.90
10276;DHT22;5183;51.190;6.820;2022-12-11T19:13:27;1.40;99.90
10276;DHT22;5183;51.190;6.820;2022-12-11T19:15:54;1.50;99.90
10276;DHT22;5183;51.190;6.820;2022-12-11T19:18:21;1.50;99.90
10276;DHT22;5183;51.190;6.820;2022-12-11T19:20:49;1.50;99.90
10276;DHT22;5183;51.190;6.820;2022-12-11T19:23:17;1.50;99.90
10276;DHT22;5183;51.190;6.820;2022-12-11T19:25:45;1.50;99.90
10276;DHT22;5183;51.190;6.820;2022-12-11T19:28:13;1.50;99.90
10276;DHT22;5183;51.190;6.820;2022-12-11T19:30:41;1.50;99.90
10276;DHT22;5183;51.190;6.820;2022-12-11T19:33:08;1.50;99.90
10276;DHT22;5183;51.190;6.820;2022-12-11T19:35:35;1.50;99.90
10276;DHT22;5183;51.190;6.820;2022-12-11T19:38:02;1.50;99.90
10276;DHT22;5183;51.190;6.820;2022-12-11T19:40:30;1.50;99.90
10276;DHT22;5183;51.190;6.820;2022-12-11T19:42:57;1.50;99.90
10276;DHT22;5183;51.190;6.820;2022-12-11T19:45:24;1.50;99.90
10276;DHT22;5183;51.190;6.820;2022-12-11T19:47:51;1.50;99.90
10276;DHT22;5183;51.190;6.820;2022-12-11T19:50:18;1.50;99.90
10276;DHT22;5183;51.190;6.820;2022-12-11T19:52:45;1.40;99.90
10276;DHT22;5183;51.190;6.820;2022-12-11T19:55:12;1.40;99.90
10276;DHT22;5183;51.190;6.820;2022-12-11T19:57:40;1.40;99.90
10276;DHT22;5183;51.190;6.820;2022-12-11T20:00:08;1.40;99.90
10276;DHT22;5183;51.190;6.820;2022-12-11T20:02:35;1.40;99.90
10276;DHT22;5183;51.190;6.820;2022-12-11T20:05:02;1.40;99.90
10276;DHT22;5183;51.190;6.820;2022-12-11T20:07:29;1.40;99.90
10276;DHT22;5183;51.190;6.820;2022-12-11T20:09:56;1.40;99.90
10276;DHT22;5183;51.190;6.820;2022-12-11T20:12:24;1.40;99.90
10276;DHT22;5183;51.190;6.820;2022-12-11T20:14:53;1.40;99.90
10276;DHT22;5183;51.190;6.820;2022-12-11T20:17:19;1.40;99.90
10276;DHT22;5183;51.190;6.820;2022-12-11T20:19:47;1.40;99.90
10276;DHT22;5183;51.190;6.820;2022-12-11T20:22:13;1.40;99.90
10276;DHT22;5183;51.190;6.820;2022-12-11T20:24:40;1.40;99.90
10276;DHT22;5183;51.190;6.820;2022-12-11T20:27:07;1.40;99.90
10276;DHT22;5183;51.190;6.820;2022-12-11T20:29:36;1.40;99.90
10276;DHT22;5183;51.190;6.820;2022-12-11T20:32:05;1.40;99.90
10276;DHT22;5183;51.190;6.820;2022-12-11T20:34:35;1.40;99.90
10276;DHT22;5183;51.190;6.820;2022-12-11T20:37:02;1.40;99.90
10276;DHT22;5183;51.190;6.820;2022-12-11T20:39:29;1.40;99.90
10276;DHT22;5183;51.190;6.820;2022-12-11T20:41:56;1.40;99.90
10276;DHT22;5183;51.190;6.820;2022-12-11T20:44:24;1.40;99.90
10276;DHT22;5183;51.190;6.820;2022-12-11T20:46:50;1.40;99.90
10276;DHT22;5183;51.190;6.820;2022-12-11T20:49:19;1.40;99.90
10276;DHT22;5183;51.190;6.820;2022-12-11T20:51:45;1.40;99.90
10276;DHT22;5183;51.190;6.820;2022-12-11T20:54:12;1.40;99.90
10276;DHT22;5183;51.190;6.820;2022-12-11T20:56:39;1.40;99.90
10276;DHT22;5183;51.190;6.820;2022-12-11T20:59:06;1.50;99.90
10276;DHT22;5183;51.190;6.820;2022-12-11T21:01:33;1.40;99.90
10276;DHT22;5183;51.190;6.820;2022-12-11T21:04:00;1.40;99.90
10276;DHT22;5183;51.190;6.820;2022-12-11T21:06:30;1.40;99.90
10276;DHT22;5183;51.190;6.820;2022-12-11T21:08:58;1.40;99.90
10276;DHT22;5183;51.190;6.820;2022-12-11T21:11:25;1.40;99.90
10276;DHT22;5183;51.190;6.820;2022-12-11T21:13:53;1.40;99.90
10276;DHT22;5183;51.190;6.820;2022-12-11T21:16:20;1.40;99.90
10276;DHT22;5183;51.190;6.820;2022-12-11T21:18:47;1.50;99.90
10276;DHT22;5183;51.190;6.820;2022-12-11T21:21:14;1.40;99.90
10276;DHT22;5183;51.190;6.820;2022-12-11T21:23:43;1.40;99.90
10276;DHT22;5183;51.190;6.820;2022-12-11T21:26:10;1.40;99.90
10276;DHT22;5183;51.190;6.820;2022-12-11T21:28:38;1.40;99.90
10276;DHT22;5183;51.190;6.820;2022-12-11T21:31:07;1.40;99.90
10276;DHT22;5183;51.190;6.820;2022-12-11T21:33:34;1.40;99.90
10276;DHT22;5183;51.190;6.820;2022-12-11T21:36:02;1.40;99.90
10276;DHT22;5183;51.190;6.820;2022-12-11T21:38:30;1.40;99.90
10276;DHT22;5183;51.190;6.820;2022-12-11T21:41:06;1.40;99.90
10276;DHT22;5183;51.190;6.820;2022-12-11T21:43:33;1.40;99.90
10276;DHT22;5183;51.190;6.820;2022-12-11T21:46:00;1.40;99.90
10276;DHT22;5183;51.190;6.820;2022-12-11T21:48:27;1.40;99.90
10276;DHT22;5183;51.190;6.820;2022-12-11T21:50:54;1.40;99.90
10276;DHT22;5183;51.190;6.820;2022-12-11T21:53:21;1.40;99.90
10276;DHT22;5183;51.190;6.820;2022-12-11T21:55:48;1.40;99.90
10276;DHT22;5183;51.190;6.820;2022-12-11T21:58:16;1.40;99.90
10276;DHT22;5183;51.190;6.820;2022-12-11T22:00:44;1.40;99.90
10276;DHT22;5183;51.190;6.820;2022-12-11T22:03:11;1.40;99.90
10276;DHT22;5183;51.190;6.820;2022-12-11T22:05:38;1.40;99.90
10276;DHT22;5183;51.190;6.820;2022-12-11T22:08:05;1.40;99.90
10276;DHT22;5183;51.190;6.820;2022-12-11T22:10:32;1.40;99.90
10276;DHT22;5183;51.190;6.820;2022-12-11T22:12:59;1.40;99.90
